Time;durP1;ratioP1;P1;durP2;ratioP2;P2;SDS_P1;SDS_P2;PMS_P1;PMS_P2;Temp;Humidity;BMP_temperature;BMP_pressure;BME280_temperature;BME280_humidity;BME280_pressure;Samples;Min_cycle;Max_cycle;Signal;HPM_P1;HPM_P2
2023/10/09 00:03:06;;;;;;;4.37;3.80;;;12.20;99.90;;;-141.84;75.04;20090.25;4961712;28;20544;-65
2023/10/09 00:05:40;;;;;;;4.77;4.10;;;12.30;99.90;;;-141.84;75.91;20078.06;5005589;28;20215;-65
2023/10/09 00:08:11;;;;;;;4.70;4.07;;;12.20;99.90;;;-141.84;76.12;20049.59;5005123;28;20652;-65
2023/10/09 00:10:49;;;;;;;4.33;3.93;;;12.30;99.90;;;-141.84;76.10;20086.19;4997675;28;20646;-66
2023/10/09 00:13:18;;;;;;;6.20;3.97;;;12.30;99.90;;;-141.84;75.53;20120.75;5004113;28;20230;-66
2023/10/09 00:15:52;;;;;;;5.07;4.03;;;12.30;99.90;;;-141.84;75.96;20071.97;5004669;28;20234;-65
2023/10/09 00:18:28;;;;;;;4.63;3.93;;;12.30;99.90;;;-141.84;75.96;20037.41;5004987;28;20230;-66
2023/10/09 00:21:10;;;;;;;6.20;4.10;;;12.30;99.90;;;-141.84;76.12;20055.69;4997684;28;20312;-67
2023/10/09 00:23:41;;;;;;;6.80;4.60;;;12.30;99.90;;;-141.84;76.18;20057.72;5004805;28;20224;-66
2023/10/09 00:26:11;;;;;;;4.93;4.23;;;12.30;99.90;;;-141.84;76.30;20067.88;5004552;28;20239;-65
2023/10/09 00:28:44;;;;;;;5.60;4.80;;;12.20;99.90;;;-141.84;76.07;20078.06;5004081;28;20304;-66
2023/10/09 00:31:15;;;;;;;6.47;4.87;;;12.30;99.90;;;-141.84;76.03;20120.75;5004070;28;20234;-65
2023/10/09 00:33:44;;;;;;;6.88;4.80;;;12.20;99.90;;;-141.84;76.67;20088.22;5004511;28;20227;-66
2023/10/09 00:36:18;;;;;;;5.17;4.40;;;12.30;99.90;;;-141.84;76.66;20098.38;5004873;28;20235;-65
2023/10/09 00:38:51;;;;;;;6.70;4.67;;;12.30;99.90;;;-141.84;77.14;20074.00;4997064;28;20297;-66
2023/10/09 00:41:24;;;;;;;5.37;4.33;;;12.30;99.90;;;-141.84;77.43;20045.53;5004943;28;20210;-65
2023/10/09 00:43:53;;;;;;;4.80;4.30;;;12.30;99.90;;;-141.84;77.00;20065.84;4984203;28;20235;-66
2023/10/09 00:46:27;;;;;;;6.00;4.30;;;12.30;99.90;;;-141.84;77.15;20092.28;4984294;28;20234;-66
2023/10/09 00:49:01;;;;;;;6.33;4.43;;;12.30;99.90;;;-141.84;76.64;20080.09;4988507;28;20250;-65
2023/10/09 00:51:35;;;;;;;4.73;4.13;;;12.20;99.90;;;-141.84;76.51;20098.38;5004632;28;20227;-66
2023/10/09 00:54:14;;;;;;;5.63;4.50;;;12.30;99.90;;;-141.84;76.53;20086.19;5003844;28;20237;-64
2023/10/09 00:56:51;;;;;;;5.90;4.57;;;12.30;99.90;;;-141.84;76.88;20088.22;5001512;28;20674;-65
2023/10/09 00:59:22;;;;;;;9.27;4.40;;;12.30;99.90;;;-141.84;76.90;20088.22;5003751;28;20206;-65
2023/10/09 01:01:56;;;;;;;5.50;4.90;;;12.30;99.90;;;-141.84;76.51;20098.38;5003731;28;22707;-66
2023/10/09 01:04:29;;;;;;;5.40;4.70;;;12.30;99.90;;;-141.84;76.59;20092.28;5003664;28;20269;-65
2023/10/09 01:07:14;;;;;;;5.60;4.33;;;12.30;99.90;;;-141.84;76.09;20084.16;4996458;28;20776;-66
2023/10/09 01:09:44;;;;;;;4.80;4.30;;;12.30;99.90;;;-141.84;76.81;20057.72;5003776;28;20605;-65
2023/10/09 01:12:17;;;;;;;5.67;4.50;;;12.30;99.90;;;-141.84;77.32;20074.00;4990132;28;20232;-64
2023/10/09 01:14:52;;;;;;;5.53;4.53;;;12.20;99.90;;;-141.84;77.36;20094.31;4976550;28;20203;-65
2023/10/09 01:17:35;;;;;;;5.38;4.85;;;12.20;99.90;;;-141.84;76.89;20080.09;4984443;28;20583;-66
2023/10/09 01:20:14;;;;;;;4.57;4.17;;;12.30;99.90;;;-141.84;77.29;20074.00;4984541;28;20226;-65
2023/10/09 01:22:43;;;;;;;5.30;4.78;;;12.30;99.90;;;-141.84;76.82;20090.25;4982621;28;20711;-65
2023/10/09 01:25:13;;;;;;;5.57;4.93;;;12.50;99.90;;;-141.84;76.94;20090.25;4981303;28;20588;-66
2023/10/09 01:27:43;;;;;;;5.50;4.90;;;12.40;99.90;;;-141.84;76.25;20114.63;4993471;28;20235;-66
2023/10/09 01:30:14;;;;;;;5.50;5.00;;;12.40;99.90;;;-141.84;76.14;20110.56;5003214;28;20280;-66
2023/10/09 01:32:43;;;;;;;5.67;4.73;;;12.40;99.90;;;-141.84;76.25;20082.13;5002988;28;20671;-65
2023/10/09 01:35:20;;;;;;;5.27;4.77;;;12.30;99.90;;;-141.84;76.74;20100.41;5003445;28;20218;-65
2023/10/09 01:37:50;;;;;;;4.70;4.30;;;12.30;99.90;;;-141.84;76.85;20090.25;5003131;28;20737;-65
2023/10/09 01:40:35;;;;;;;6.77;4.87;;;12.30;99.90;;;-141.84;77.14;20051.63;5003109;28;20222;-65
2023/10/09 01:43:04;;;;;;;5.90;4.53;;;12.30;99.90;;;-141.84;77.14;20065.84;4976066;28;20269;-65
2023/10/09 01:45:41;;;;;;;5.03;4.22;;;12.30;99.90;;;-141.84;77.00;20055.69;4988800;28;20675;-65
2023/10/09 01:48:12;;;;;;;4.22;3.83;;;12.30;99.90;;;-141.84;76.92;20106.50;4997572;28;20239;-66
2023/10/09 01:50:41;;;;;;;5.97;4.27;;;12.40;99.90;;;-141.84;76.94;20084.16;4983456;28;20273;-65
2023/10/09 01:53:17;;;;;;;5.50;4.17;;;12.40;99.90;;;-141.84;77.24;20065.84;4984121;28;20215;-66
2023/10/09 01:55:46;;;;;;;5.10;4.38;;;12.30;99.90;;;-141.84;77.32;20084.16;4983482;28;20330;-65
2023/10/09 01:58:24;;;;;;;6.70;4.60;;;12.30;99.90;;;-141.84;77.33;20098.38;4983978;28;20329;-66
2023/10/09 02:00:55;;;;;;;4.72;4.22;;;12.30;99.90;;;-141.84;77.44;20084.16;4978412;28;20272;-65
2023/10/09 02:03:25;;;;;;;5.80;4.13;;;12.30;99.90;;;-141.84;77.96;20035.38;5002520;28;20238;-65
2023/10/09 02:05:59;;;;;;;5.03;4.07;;;12.30;99.90;;;-141.84;77.36;20074.00;5002756;28;20223;-65
2023/10/09 02:08:29;;;;;;;6.15;4.10;;;12.30;99.90;;;-141.84;77.57;20078.06;5003268;28;20206;-66
2023/10/09 02:10:59;;;;;;;4.30;3.90;;;12.30;99.90;;;-141.84;77.37;20086.19;4995855;28;20234;-65
2023/10/09 02:13:30;;;;;;;4.88;4.28;;;12.40;99.90;;;-141.84;77.00;20094.31;5002863;28;20234;-66
2023/10/09 02:16:13;;;;;;;5.30;4.30;;;12.40;99.90;;;-141.84;77.10;20100.41;5002867;28;20253;-66
2023/10/09 02:18:52;;;;;;;5.70;4.68;;;12.40;99.90;;;-141.84;77.71;20080.09;5002622;28;20230;-65
2023/10/09 02:21:33;;;;;;;6.67;4.40;;;12.40;99.90;;;-141.84;78.15;20057.72;5001507;28;20634;-66
2023/10/09 02:24:07;;;;;;;5.50;4.33;;;12.40;99.90;;;-141.84;77.81;20055.69;5002871;28;20237;-66
2023/10/09 02:27:06;;;;;;;5.07;4.20;;;12.40;99.90;;;-141.84;77.71;20041.47;5002146;28;20214;-66
2023/10/09 02:29:38;;;;;;;5.00;3.85;;;12.40;99.90;;;-141.84;77.86;20059.75;5003160;28;20322;-66
2023/10/09 02:32:25;;;;;;;6.17;4.57;;;12.30;99.90;;;-141.84;77.71;20080.09;5003359;28;20628;-66
2023/10/09 02:34:54;;;;;;;5.67;4.63;;;12.40;99.90;;;-141.84;77.80;20078.06;4994814;28;20320;-66
2023/10/09 02:37:25;;;;;;;5.17;4.00;;;12.40;99.90;;;-141.84;77.85;20053.66;5006049;28;20276;-66
2023/10/09 02:39:53;;;;;;;5.73;4.13;;;12.50;99.90;;;-141.84;78.43;20080.09;5006873;28;20222;-65
2023/10/09 02:42:28;;;;;;;6.43;4.47;;;12.50;99.90;;;-141.84;78.61;20063.81;5006262;28;20257;-65
2023/10/09 02:44:58;;;;;;;5.88;4.30;;;12.40;99.90;;;-141.84;78.71;20049.59;4999138;28;20229;-66
2023/10/09 02:47:31;;;;;;;4.60;4.20;;;12.40;99.90;;;-141.84;78.48;20035.38;4989220;28;20274;-65
2023/10/09 02:50:06;;;;;;;5.68;4.10;;;12.40;99.90;;;-141.84;78.52;20067.88;5006545;28;20237;-64
2023/10/09 02:52:40;;;;;;;4.95;4.20;;;12.40;99.90;;;-141.84;78.68;20074.00;5006538;28;20258;-66
2023/10/09 02:55:14;;;;;;;4.50;4.10;;;12.40;99.90;;;-141.84;78.71;20061.78;5001306;28;20261;-66
2023/10/09 02:57:45;;;;;;;5.03;4.50;;;12.40;99.90;;;-141.84;78.87;20051.63;5006161;28;20281;-66
2023/10/09 03:00:18;;;;;;;5.00;4.50;;;12.40;99.90;;;-141.84;78.93;20043.50;4992093;28;20231;-65
2023/10/09 03:02:49;;;;;;;5.70;4.27;;;12.40;99.90;;;-141.84;78.68;20065.84;4978863;28;20235;-65
2023/10/09 03:05:20;;;;;;;4.10;3.70;;;12.50;99.90;;;-141.84;78.10;20088.22;4986838;28;20561;-65
2023/10/09 03:07:52;;;;;;;4.23;3.83;;;12.50;99.90;;;-141.84;77.76;20098.38;4986339;28;20290;-66
2023/10/09 03:10:20;;;;;;;5.53;4.07;;;12.50;99.90;;;-141.84;78.26;20088.22;4986466;28;20242;-66
2023/10/09 03:12:53;;;;;;;6.27;4.10;;;12.50;99.90;;;-141.84;77.95;20088.22;4997907;28;20810;-65
2023/10/09 03:15:21;;;;;;;4.20;3.80;;;12.50;99.90;;;-141.84;78.64;20065.84;5006091;28;20233;-66
2023/10/09 03:17:50;;;;;;;5.75;4.13;;;12.50;99.90;;;-141.84;78.62;20090.25;5005445;28;20233;-66
2023/10/09 03:20:18;;;;;;;4.83;4.20;;;12.50;99.90;;;-141.84;78.39;20061.78;5006123;28;20219;-65
2023/10/09 03:22:48;;;;;;;4.97;4.00;;;12.50;99.90;;;-141.84;78.52;20094.31;4997398;28;20881;-65
2023/10/09 03:25:17;;;;;;;4.85;4.20;;;12.60;99.90;;;-141.84;78.87;20090.25;5005499;28;20606;-65
2023/10/09 03:27:46;;;;;;;5.60;3.83;;;12.60;99.90;;;-141.84;78.94;20100.41;5005740;28;20658;-67
2023/10/09 03:30:22;;;;;;;7.30;4.30;;;12.60;99.90;;;-141.84;78.28;20114.63;5005732;28;20665;-66
2023/10/09 03:32:53;;;;;;;4.83;4.00;;;12.60;99.90;;;-141.84;78.31;20074.00;4998593;28;20231;-65
2023/10/09 03:35:27;;;;;;;4.23;3.53;;;12.60;99.90;;;-141.84;78.45;20098.38;5005936;28;20214;-66
2023/10/09 03:38:00;;;;;;;6.50;4.50;;;12.60;99.90;;;-141.84;77.93;20116.66;5005374;28;20791;-66
2023/10/09 03:40:30;;;;;;;5.03;4.10;;;12.70;99.90;;;-141.84;78.29;20082.13;5005064;28;20222;-67
2023/10/09 03:43:01;;;;;;;4.28;3.88;;;12.70;99.90;;;-141.84;78.89;20074.00;4978139;28;20270;-67
2023/10/09 03:45:35;;;;;;;5.03;4.10;;;12.60;99.90;;;-141.84;78.88;20071.97;4990798;28;20219;-65
2023/10/09 03:48:08;;;;;;;7.00;4.00;;;12.70;99.90;;;-141.84;79.30;20074.00;5005104;28;20234;-67
2023/10/09 03:50:38;;;;;;;4.90;4.00;;;12.60;99.90;;;-141.84;79.32;20061.78;5005673;28;20201;-66
2023/10/09 03:53:12;;;;;;;5.07;3.97;;;12.60;99.90;;;-141.84;79.43;20071.97;4997796;28;20294;-67
2023/10/09 03:55:41;;;;;;;4.60;4.13;;;12.60;99.90;;;-141.84;79.11;20045.53;5004631;28;20660;-66
2023/10/09 03:58:11;;;;;;;5.03;4.20;;;12.60;99.90;;;-141.84;79.24;20086.19;5005422;28;20318;-66
2023/10/09 04:00:44;;;;;;;5.85;4.18;;;12.60;99.90;;;-141.84;79.68;20108.53;5005472;28;20250;-66
2023/10/09 04:03:14;;;;;;;4.97;4.00;;;12.60;99.90;;;-141.84;79.77;20045.53;5005433;28;20241;-67
2023/10/09 04:05:44;;;;;;;5.95;3.88;;;12.60;99.90;;;-141.84;80.32;20053.66;5005499;28;20228;-65
2023/10/09 04:08:19;;;;;;;4.60;4.07;;;12.50;99.90;;;-141.84;80.45;20025.22;5005263;28;20206;-65
2023/10/09 04:10:52;;;;;;;4.60;4.20;;;12.60;99.90;;;-141.84;80.49;20049.59;4996738;28;20234;-66
2023/10/09 04:13:33;;;;;;;4.77;4.27;;;12.50;99.90;;;-141.84;80.46;20049.59;5005000;28;20234;-66
2023/10/09 04:16:19;;;;;;;4.20;3.80;;;12.60;99.90;;;-141.84;80.94;20027.25;4985689;28;20592;-65
2023/10/09 04:18:49;;;;;;;4.93;4.07;;;12.60;99.90;;;-141.84;81.13;20041.47;4990736;28;20602;-66
2023/10/09 04:21:18;;;;;;;5.57;4.40;;;12.60;99.90;;;-141.84;81.09;20086.19;5004746;28;20782;-65
2023/10/09 04:26:46;;;;;;;5.18;4.65;;;12.60;99.90;;;-141.84;81.54;20049.59;4954871;28;20212;-64
2023/10/09 04:29:18;;;;;;;5.43;4.67;;;12.60;99.90;;;-141.84;82.17;20015.03;4980172;28;20290;-66
2023/10/09 04:31:51;;;;;;;5.87;4.67;;;12.60;99.90;;;-141.84;82.43;20013.00;5003627;28;20226;-65
2023/10/09 04:34:23;;;;;;;5.13;4.15;;;12.60;99.90;;;-141.84;82.72;19998.78;5004394;28;20227;-66
2023/10/09 04:36:56;;;;;;;6.18;4.53;;;12.60;99.90;;;-141.84;82.34;20045.53;4997522;28;20500;-66
2023/10/09 04:39:46;;;;;;;5.85;4.80;;;12.60;99.90;;;-141.84;82.39;20015.03;5004185;28;20250;-66
2023/10/09 04:42:36;;;;;;;6.47;4.70;;;12.60;99.90;;;-141.84;82.92;20063.81;5003990;28;20318;-66
2023/10/09 04:48:08;;;;;;;5.50;4.95;;;12.60;99.90;;;-141.84;83.34;20006.91;4991730;28;20245;-66
2023/10/09 04:50:45;;;;;;;6.05;4.80;;;12.60;99.90;;;-141.84;83.39;20023.19;5004364;28;20207;-66
2023/10/09 04:53:23;;;;;;;4.80;4.30;;;12.60;99.90;;;-141.84;84.01;20000.81;4986211;28;20207;-66
2023/10/09 04:56:04;;;;;;;5.70;4.97;;;12.60;99.90;;;-141.84;84.34;19996.75;4965397;28;20263;-65
2023/10/09 04:58:39;;;;;;;5.32;4.68;;;12.60;99.90;;;-141.84;84.71;19986.59;4988094;28;20284;-66
2023/10/09 05:01:14;;;;;;;6.90;5.03;;;12.50;99.90;;;-141.84;85.10;19976.44;4996728;28;20288;-66
2023/10/09 05:03:44;;;;;;;5.80;4.97;;;12.50;99.90;;;-141.84;85.40;20002.84;5004066;28;20241;-65
2023/10/09 05:06:42;;;;;;;6.07;5.47;;;12.50;99.90;;;-141.84;85.56;19996.75;5003992;28;20610;-64
2023/10/09 05:09:14;;;;;;;6.03;5.43;;;12.50;99.90;;;-141.84;85.65;19962.19;5000012;28;20748;-66
2023/10/09 05:12:09;;;;;;;6.80;5.87;;;12.60;99.90;;;-141.84;85.84;19982.53;5004114;28;20214;-65
2023/10/09 05:15:04;;;;;;;6.07;5.07;;;12.60;99.90;;;-141.84;86.25;19982.53;5003355;28;20206;-66
2023/10/09 05:17:29;;;;;;;6.77;4.90;;;12.60;99.90;;;-141.84;86.46;19966.28;5004328;28;20281;-66
2023/10/09 05:22:53;;;;;;;7.23;5.17;;;12.50;99.90;;;-141.84;86.14;19970.34;5003361;28;20296;-65
2023/10/09 05:25:53;;;;;;;5.20;4.70;;;12.50;99.90;;;-141.84;86.16;19980.50;5003188;28;20238;-66
2023/10/09 05:31:02;;;;;;;5.95;5.35;;;12.60;99.90;;;-141.84;86.84;19960.16;4986221;28;20244;-65
2023/10/09 05:33:33;;;;;;;5.87;4.80;;;12.50;99.90;;;-141.84;86.98;19947.97;5000793;28;20236;-65
2023/10/09 05:36:31;;;;;;;6.30;5.37;;;12.50;99.90;;;-141.84;86.39;19984.56;5003575;28;20237;-64
2023/10/09 05:38:58;;;;;;;7.17;5.53;;;12.50;99.90;;;-141.84;86.19;19980.50;4995859;28;20234;-64
2023/10/09 05:41:47;;;;;;;6.70;5.67;;;12.50;99.90;;;-141.84;86.58;19976.44;5003587;28;20585;-65
2023/10/09 05:49:54;;;;;;;8.23;5.87;;;12.60;99.90;;;-141.84;86.23;19974.41;4982616;28;20259;-66
2023/10/09 05:52:56;;;;;;;6.00;5.40;;;12.60;99.90;;;-141.84;86.74;19943.91;4983511;28;20231;-65
2023/10/09 05:55:49;;;;;;;8.70;6.37;;;12.60;99.90;;;-141.84;86.27;19968.31;4998410;28;20272;-65
2023/10/09 06:03:55;;;;;;;9.77;6.07;;;12.70;99.90;;;-141.84;86.21;19994.72;5003082;28;20722;-65
2023/10/09 06:06:42;;;;;;;8.40;5.97;;;12.80;99.90;;;-141.84;86.37;20013.00;5001826;28;20225;-66
2023/10/09 06:09:49;;;;;;;7.57;6.32;;;12.90;99.90;;;-141.84;85.66;20041.47;5000468;28;20601;-65
2023/10/09 06:17:51;;;;;;;7.90;5.93;;;12.90;99.90;;;-141.84;85.76;20017.09;5002208;28;20203;-62
2023/10/09 06:23:15;;;;;;;8.35;6.18;;;13.00;99.90;;;-141.84;86.39;19980.50;4974569;28;20261;-64
2023/10/09 06:25:51;;;;;;;7.00;5.80;;;12.90;99.90;;;-141.84;87.40;19972.38;4999228;28;20260;-63
2023/10/09 06:28:32;;;;;;;6.43;5.70;;;12.80;99.90;;;-141.84;87.19;19996.75;5000242;28;20332;-63
2023/10/09 06:31:27;;;;;;;8.23;6.43;;;12.80;99.90;;;-141.84;87.72;20008.94;4991913;28;20608;-63
2023/10/09 06:34:08;;;;;;;8.03;6.77;;;12.70;99.90;;;-141.84;88.45;19956.09;5001579;28;20258;-63
2023/10/09 06:36:46;;;;;;;9.47;7.00;;;12.70;99.90;;;-141.84;89.00;19964.25;5000116;28;20304;-63
2023/10/09 06:42:30;;;;;;;7.93;6.40;;;12.70;99.90;;;-141.84;89.91;19958.13;5002252;28;20238;-62
2023/10/09 06:45:15;;;;;;;7.97;6.43;;;12.70;99.90;;;-141.84;90.00;19976.44;4992288;28;20222;-63
2023/10/09 06:47:53;;;;;;;9.03;6.97;;;12.80;99.90;;;-141.84;89.72;19964.25;4989893;28;20206;-64
2023/10/09 06:50:55;;;;;;;9.47;6.93;;;12.80;99.90;;;-141.84;90.03;19962.19;5002355;28;20219;-64
2023/10/09 06:53:25;;;;;;;9.82;7.30;;;12.80;99.90;;;-141.84;90.41;19976.44;5002804;28;20222;-63
2023/10/09 06:56:05;;;;;;;10.35;6.97;;;12.80;99.90;;;-141.84;90.45;19956.09;5001859;28;20223;-65
2023/10/09 06:58:42;;;;;;;8.10;7.28;;;12.90;99.90;;;-141.84;90.82;19976.44;5001930;28;20318;-65
2023/10/09 07:01:39;;;;;;;8.87;7.10;;;12.90;99.90;;;-141.84;90.62;19986.59;4999478;28;20320;-65
2023/10/09 07:04:18;;;;;;;10.13;7.37;;;12.90;99.90;;;-141.84;90.05;20049.59;5001707;28;20227;-66
2023/10/09 07:06:48;;;;;;;12.25;7.38;;;13.10;99.90;;;-141.84;89.88;20021.16;4995085;28;20262;-67
2023/10/09 07:09:19;;;;;;;11.23;7.90;;;13.20;99.90;;;-141.84;90.11;20002.84;5001083;28;20241;-63
2023/10/09 07:12:03;;;;;;;8.98;7.25;;;13.20;99.90;;;-141.84;89.70;20023.19;4999917;28;20203;-61
2023/10/09 07:15:01;;;;;;;9.65;7.18;;;13.30;99.90;;;-141.84;89.89;20041.47;5001976;28;20215;-62
2023/10/09 07:17:26;;;;;;;13.45;7.57;;;13.30;99.90;;;-141.84;90.41;20041.47;5001720;28;20229;-63
2023/10/09 07:20:13;;;;;;;10.98;8.05;;;13.30;99.90;;;-141.84;90.91;20057.72;5001209;28;20615;-64
2023/10/09 07:22:52;;;;;;;12.00;7.78;;;13.30;99.90;;;-141.84;90.09;20065.84;5003400;28;20238;-64
2023/10/09 07:25:41;;;;;;;9.90;7.90;;;13.50;99.90;;;-141.84;90.04;20065.84;5004960;28;20638;-65
2023/10/09 07:28:19;;;;;;;11.70;8.00;;;13.40;99.90;;;-141.84;90.08;20067.88;5005338;28;20222;-64
2023/10/09 07:30:56;;;;;;;11.88;8.50;;;13.50;99.90;;;-141.84;90.53;20059.75;4997425;28;20662;-65
2023/10/09 07:33:33;;;;;;;12.43;8.40;;;13.50;99.90;;;-141.84;90.49;20069.94;5005105;28;20288;-65
2023/10/09 07:36:07;;;;;;;11.23;8.90;;;13.50;99.90;;;-141.84;91.15;20045.53;5003782;28;20217;-64
2023/10/09 07:38:36;;;;;;;11.65;8.55;;;13.50;99.90;;;-141.84;91.35;20031.31;5005087;28;20202;-63
2023/10/09 07:43:47;;;;;;;10.02;7.90;;;13.60;99.90;;;-141.84;90.89;20082.13;4986605;28;20326;-64
2023/10/09 07:46:32;;;;;;;11.85;8.88;;;13.70;99.90;;;-141.84;91.58;20025.22;4985347;28;20227;-63
2023/10/09 07:49:08;;;;;;;12.52;8.88;;;13.70;99.90;;;-141.84;91.81;20063.81;4990084;28;20227;-63
2023/10/09 07:51:38;;;;;;;12.05;9.52;;;13.80;99.90;;;-141.84;91.85;20061.78;5005133;28;20325;-63
2023/10/09 07:54:07;;;;;;;10.15;8.27;;;13.80;99.90;;;-141.84;91.87;20084.16;5005574;28;20242;-65
2023/10/09 07:56:41;;;;;;;13.93;9.48;;;13.90;99.90;;;-141.84;90.87;20122.78;5004745;28;20202;-66
2023/10/09 07:59:11;;;;;;;11.50;8.90;;;13.90;99.90;;;-141.84;90.64;20069.94;5000068;28;20242;-64
2023/10/09 08:01:52;;;;;;;12.52;9.25;;;14.00;99.90;;;-141.84;91.02;20094.31;5004802;28;20342;-63
2023/10/09 08:04:37;;;;;;;11.27;8.60;;;14.00;99.90;;;-141.84;90.75;20080.09;5004360;28;20230;-63
2023/10/09 08:07:07;;;;;;;11.23;8.63;;;14.10;99.90;;;-141.84;91.21;20094.31;4997361;28;20251;-62
2023/10/09 08:12:57;;;;;;;12.43;8.40;;;14.10;99.90;;;-141.84;90.41;20102.44;4987437;28;20243;-66
2023/10/09 08:15:34;;;;;;;13.38;8.98;;;14.10;99.90;;;-141.84;90.37;20139.03;4985148;28;20314;-65
2023/10/09 08:18:09;;;;;;;11.35;9.02;;;14.20;99.90;;;-141.84;90.40;20100.41;4991913;28;20303;-63
2023/10/09 08:21:19;;;;;;;13.15;8.75;;;14.10;99.90;;;-141.84;90.55;20106.50;5004137;28;20199;-65
2023/10/09 08:23:48;;;;;;;12.35;8.65;;;14.10;99.90;;;-141.84;90.79;20139.03;5004419;28;20242;-64
2023/10/09 08:26:28;;;;;;;12.18;9.35;;;14.20;99.90;;;-141.84;90.34;20175.63;5004263;28;20669;-65
2023/10/09 08:29:15;;;;;;;11.27;8.63;;;14.20;99.90;;;-141.84;90.19;20112.59;4987625;28;20304;-64
2023/10/09 08:31:56;;;;;;;14.48;9.27;;;14.30;99.90;;;-141.84;89.72;20130.91;4987943;28;20230;-66
2023/10/09 08:34:25;;;;;;;9.98;7.75;;;14.20;99.90;;;-141.84;89.97;20090.25;5003886;28;20276;-65
2023/10/09 08:36:56;;;;;;;12.02;8.43;;;14.20;99.90;;;-141.84;90.57;20126.84;4989179;28;20569;-63
2023/10/09 08:39:33;;;;;;;12.30;9.00;;;14.20;99.90;;;-141.84;90.67;20122.78;4985175;28;20227;-65
2023/10/09 08:42:03;;;;;;;14.35;9.40;;;14.20;99.90;;;-141.84;90.53;20104.47;4996240;28;20241;-67
2023/10/09 08:44:35;;;;;;;11.65;8.98;;;14.20;99.90;;;-141.84;90.73;20122.78;5004207;28;20211;-67
2023/10/09 08:47:05;;;;;;;14.23;10.18;;;14.10;99.90;;;-141.84;91.18;20106.50;4996853;28;20596;-65
2023/10/09 08:49:37;;;;;;;11.18;8.80;;;14.10;99.90;;;-141.84;91.44;20065.84;5004151;28;20234;-69
2023/10/09 08:52:06;;;;;;;14.85;10.23;;;14.10;99.90;;;-141.84;91.38;20092.28;5004030;28;20234;-69
2023/10/09 08:54:35;;;;;;;18.33;10.43;;;14.20;99.90;;;-141.84;91.35;20153.25;5004390;28;20226;-65
2023/10/09 08:57:04;;;;;;;18.75;10.65;;;14.20;99.90;;;-141.84;90.96;20177.66;4989889;28;20246;-66
2023/10/09 08:59:33;;;;;;;12.77;10.20;;;14.30;99.90;;;-141.84;90.68;20139.03;5003706;28;20207;-61
2023/10/09 09:02:03;;;;;;;14.75;9.77;;;14.40;99.90;;;-141.84;90.60;20116.66;5003738;28;20234;-66
2023/10/09 09:04:41;;;;;;;13.85;10.55;;;14.40;99.90;;;-141.84;90.82;20147.16;5003785;28;20238;-67
2023/10/09 09:07:28;;;;;;;15.30;11.32;;;14.40;99.90;;;-141.84;90.73;20147.16;4999568;28;20264;-68
2023/10/09 09:10:03;;;;;;;11.32;9.73;;;14.40;99.90;;;-141.84;91.07;20118.69;5004247;28;20230;-64
2023/10/09 09:12:37;;;;;;;13.80;9.98;;;14.40;99.90;;;-141.84;91.46;20102.44;4987876;28;20239;-64
2023/10/09 09:15:20;;;;;;;15.60;10.98;;;14.30;99.90;;;-141.84;91.06;20202.03;4976325;28;20857;-63
2023/10/09 09:17:50;;;;;;;15.68;11.27;;;14.40;99.90;;;-141.84;90.30;20122.78;4989799;28;20208;-62
2023/10/09 09:20:27;;;;;;;19.80;10.82;;;14.40;99.90;;;-141.84;90.00;20165.44;4964408;28;20684;-65
2023/10/09 09:22:57;;;;;;;14.13;10.75;;;14.40;99.90;;;-141.84;89.87;20167.47;4957097;28;20518;-67
2023/10/09 09:25:45;;;;;;;13.75;10.20;;;14.40;99.90;;;-141.84;90.05;20153.25;4987293;28;20230;-63
2023/10/09 09:28:19;;;;;;;15.23;10.80;;;14.50;99.90;;;-141.84;89.37;20191.88;5002143;28;20309;-67
2023/10/09 09:30:51;;;;;;;15.80;10.45;;;14.50;99.90;;;-141.84;89.71;20173.59;4995688;28;20234;-62
2023/10/09 09:33:39;;;;;;;13.27;10.38;;;14.50;99.90;;;-141.84;90.02;20155.28;4992214;28;20241;-67
2023/10/09 09:36:11;;;;;;;14.88;10.20;;;14.50;99.90;;;-141.84;90.98;20167.47;4983287;28;20223;-66
2023/10/09 09:38:47;;;;;;;17.30;11.43;;;14.50;99.90;;;-141.84;89.90;20228.47;4983745;28;20203;-61
2023/10/09 09:41:23;;;;;;;15.55;10.75;;;14.60;99.90;;;-141.84;89.42;20244.72;4989510;28;20225;-65
2023/10/09 09:43:57;;;;;;;14.35;10.65;;;14.70;99.90;;;-141.84;88.83;20218.31;4984019;28;20646;-63
2023/10/09 09:46:33;;;;;;;17.05;10.40;;;14.70;99.90;;;-141.84;89.63;20210.16;4982709;28;20266;-63
2023/10/09 09:49:05;;;;;;;14.23;10.45;;;14.80;99.90;;;-141.84;90.25;20206.09;4988133;28;20230;-64
2023/10/09 09:51:35;;;;;;;13.30;10.13;;;14.90;99.90;;;-141.84;89.02;20269.13;5002674;28;20598;-64
2023/10/09 09:54:08;;;;;;;12.98;10.40;;;15.10;99.90;;;-141.84;88.08;20293.50;5002772;28;20265;-65
2023/10/09 09:56:39;;;;;;;13.60;10.27;;;15.10;99.90;;;-141.84;87.57;20346.34;5002863;28;20217;-65
2023/10/09 09:59:13;;;;;;;12.93;9.48;;;15.20;99.90;;;-141.84;85.91;20346.34;4995555;28;20624;-66
2023/10/09 10:01:44;;;;;;;13.82;9.80;;;15.40;99.90;;;-141.84;85.29;20441.88;5002853;28;20241;-66
2023/10/09 10:04:21;;;;;;;13.60;9.52;;;15.60;99.90;;;-141.84;84.38;20443.91;5002861;28;20253;-65
2023/10/09 10:06:54;;;;;;;12.95;9.93;;;15.70;99.90;;;-141.84;82.76;20470.34;4995029;28;20265;-65
2023/10/09 10:09:39;;;;;;;14.30;9.95;;;15.80;99.90;;;-141.84;81.15;20521.16;5003221;28;20266;-63
2023/10/09 10:12:10;;;;;;;11.45;9.35;;;15.90;99.90;;;-141.84;82.07;20502.88;5003261;28;20663;-75
2023/10/09 10:14:56;;;;;;;11.65;8.73;;;16.00;99.90;;;-141.84;82.21;20496.78;5002106;28;20625;-74
2023/10/09 10:17:25;;;;;;;10.40;8.40;;;16.00;99.90;;;-141.84;81.79;20470.34;4983742;28;20687;-65
2023/10/09 10:23:18;;;;;;;10.65;8.52;;;15.90;99.90;;;-141.84;82.55;20435.78;4974958;28;20242;-66
2023/10/09 10:25:50;;;;;;;11.93;9.10;;;15.80;99.90;;;-141.84;83.98;20409.38;4982591;28;20318;-65
2023/10/09 10:28:28;;;;;;;15.00;9.70;;;15.70;99.90;;;-141.84;84.07;20427.66;4992178;28;20268;-64
2023/10/09 10:31:00;;;;;;;12.27;9.38;;;15.60;99.90;;;-141.84;83.19;20454.09;4985236;28;20222;-64
2023/10/09 10:34:07;;;;;;;15.13;9.75;;;15.70;99.90;;;-141.84;83.89;20403.25;4990828;28;20281;-65
2023/10/09 10:36:35;;;;;;;11.50;9.25;;;15.70;99.90;;;-141.84;84.83;20334.16;4999339;28;20226;-65
2023/10/09 10:39:10;;;;;;;12.15;10.05;;;15.60;99.90;;;-141.84;86.23;20340.25;4994199;28;20238;-66
2023/10/09 10:41:50;;;;;;;13.02;9.55;;;15.50;99.90;;;-141.84;86.96;20295.53;5000789;28;20198;-64
2023/10/09 10:44:41;;;;;;;13.10;9.48;;;15.40;99.90;;;-141.84;87.53;20281.31;5002383;28;20321;-64
2023/10/09 10:47:27;;;;;;;15.77;9.98;;;15.30;99.90;;;-141.84;87.97;20301.63;4992801;28;20682;-65
2023/10/09 10:49:59;;;;;;;15.70;8.85;;;15.30;99.90;;;-141.84;86.96;20275.22;4984117;28;20238;-64
2023/10/09 10:52:41;;;;;;;14.13;11.00;;;15.30;99.90;;;-141.84;87.76;20250.81;5001646;28;20831;-65
2023/10/09 10:58:10;;;;;;;11.55;8.55;;;15.10;99.90;;;-141.84;89.34;20187.81;5005678;28;20238;-64
2023/10/09 11:03:35;;;;;;;9.95;8.35;;;15.10;99.90;;;-141.84;90.25;20216.25;4993946;28;20238;-64
2023/10/09 11:06:13;;;;;;;11.15;8.65;;;15.10;99.90;;;-141.84;90.60;20214.22;5004759;28;20234;-64
2023/10/09 11:08:54;;;;;;;11.85;7.93;;;15.10;99.90;;;-141.84;90.87;20189.84;5006286;28;20222;-64
2023/10/09 11:11:32;;;;;;;11.90;8.80;;;15.10;99.90;;;-141.84;90.69;20242.69;5000006;28;20231;-65
2023/10/09 11:14:14;;;;;;;10.98;8.45;;;15.10;99.90;;;-141.84;90.67;20210.16;5003166;28;20226;-65
2023/10/09 11:16:41;;;;;;;12.27;9.05;;;15.10;99.90;;;-141.84;90.70;20210.16;5006437;28;20242;-64
2023/10/09 11:22:27;;;;;;;11.00;9.02;;;15.10;99.90;;;-141.84;90.64;20222.38;5005056;28;20222;-65
2023/10/09 11:25:10;;;;;;;12.05;9.07;;;15.10;99.90;;;-141.84;90.61;20212.19;4997063;28;20680;-64
2023/10/09 11:27:50;;;;;;;10.30;8.15;;;15.20;99.90;;;-141.84;90.94;20216.25;4999149;28;20227;-65
2023/10/09 11:30:32;;;;;;;11.63;9.15;;;15.10;99.90;;;-141.84;91.00;20195.94;5004198;28;20226;-65
2023/10/09 11:33:13;;;;;;;11.98;8.43;;;15.10;99.90;;;-141.84;91.05;20187.81;4997198;28;20292;-65